createdAt,value
2022-12-25T00:00:37.458Z,96716.38
2022-12-25T00:03:06.274Z,96725.91
2022-12-25T00:05:35.356Z,96726.94
2022-12-25T00:08:03.684Z,96738.59
2022-12-25T00:10:33.653Z,96731.31
2022-12-25T00:13:02.543Z,96671.81
2022-12-25T00:15:30.877Z,96731.91
2022-12-25T00:17:59.759Z,96726.31
2022-12-25T00:20:28.131Z,96729.00
2022-12-25T00:22:57.851Z,96742.69
2022-12-25T00:25:26.657Z,96745.41
2022-12-25T00:27:56.350Z,96743.56
2022-12-25T00:30:25.555Z,96741.69
2022-12-25T00:32:53.909Z,96741.44
2022-12-25T00:35:23.194Z,96744.38
2022-12-25T00:37:51.955Z,96743.56
2022-12-25T00:40:20.329Z,96737.94
2022-12-25T00:42:52.508Z,96730.72
2022-12-25T00:45:22.270Z,96751.25
2022-12-25T00:47:51.135Z,96751.47
2022-12-25T00:50:20.204Z,96744.63
2022-12-25T00:52:48.528Z,96750.25
2022-12-25T00:55:17.090Z,96743.03
2022-12-25T00:57:45.398Z,96739.13
2022-12-25T01:00:15.822Z,96733.38
2022-12-25T01:02:45.626Z,96735.91
2022-12-25T01:05:15.049Z,96734.84
2022-12-25T01:07:43.832Z,96737.78
2022-12-25T01:10:23.708Z,96730.91
2022-12-25T01:12:53.320Z,96737.19
2022-12-25T01:15:22.215Z,96734.13
2022-12-25T01:17:51.919Z,96734.94
2022-12-25T01:20:20.860Z,96736.59
2022-12-25T01:22:49.219Z,96732.25
2022-12-25T01:25:17.785Z,96734.13
2022-12-25T01:27:46.670Z,96741.16
2022-12-25T01:30:15.178Z,96741.16
2022-12-25T01:32:44.477Z,96740.56
2022-12-25T01:35:14.191Z,96738.28
2022-12-25T01:37:42.789Z,96739.09
2022-12-25T01:40:12.002Z,96735.00
2022-12-25T01:42:40.365Z,96725.56
2022-12-25T01:45:37.375Z,96740.44
2022-12-25T01:48:10.771Z,96746.94
2022-12-25T01:50:44.178Z,96746.94
2022-12-25T01:53:13.138Z,96763.56
2022-12-25T01:55:45.296Z,96771.41
2022-12-25T01:58:14.369Z,96758.97
2022-12-25T02:00:43.175Z,96755.28
2022-12-25T02:03:12.198Z,96747.19
2022-12-25T02:05:42.059Z,96742.00
2022-12-25T02:08:13.641Z,96747.81
2022-12-25T02:10:44.655Z,96757.78
2022-12-25T02:13:16.030Z,96751.56
2022-12-25T02:15:52.694Z,96756.34
2022-12-25T02:18:34.991Z,96752.84
2022-12-25T02:21:25.143Z,96746.41
2022-12-25T02:24:11.058Z,96739.16
2022-12-25T02:26:56.684Z,96722.84
2022-12-25T02:29:34.079Z,96740.50
2022-12-25T02:32:09.292Z,96740.75
2022-12-25T02:34:45.180Z,96733.06
2022-12-25T02:37:19.042Z,96721.94
2022-12-25T02:40:00.377Z,96733.28
2022-12-25T02:42:54.459Z,96737.59
2022-12-25T02:45:47.345Z,96743.63
2022-12-25T02:48:36.159Z,96738.66
2022-12-25T02:51:26.255Z,96739.25
2022-12-25T02:54:16.108Z,96732.19
2022-12-25T02:57:05.341Z,96734.09
2022-12-25T02:59:56.234Z,96741.31
2022-12-25T03:02:45.566Z,96733.03
2022-12-25T03:05:35.834Z,96746.69
2022-12-25T03:08:09.437Z,96740.28
2022-12-25T03:10:58.809Z,96743.19
2022-12-25T03:13:34.445Z,96739.88
2022-12-25T03:16:20.677Z,96744.44
2022-12-25T03:18:50.407Z,96739.22
2022-12-25T03:21:45.509Z,96738.84
2022-12-25T03:24:31.614Z,96726.78
2022-12-25T03:27:00.686Z,96727.84
2022-12-25T03:29:49.927Z,96719.78
2022-12-25T03:32:30.169Z,96700.56
2022-12-25T03:35:23.958Z,96711.91
2022-12-25T03:38:15.137Z,96683.19
2022-12-25T03:41:11.960Z,96709.22
2022-12-25T03:44:03.831Z,96707.34
2022-12-25T03:47:06.936Z,96705.69
2022-12-25T03:50:03.688Z,96704.28
2022-12-25T03:52:54.299Z,96706.81
2022-12-25T03:55:54.823Z,96683.88
2022-12-25T03:58:43.098Z,96700.81
2022-12-25T04:01:29.771Z,96690.44
2022-12-25T04:04:15.945Z,96697.88
2022-12-25T04:07:01.815Z,96708.44
2022-12-25T04:09:49.566Z,96708.63
2022-12-25T04:12:35.351Z,96698.88
2022-12-25T04:15:21.445Z,96694.94
2022-12-25T04:18:10.889Z,96690.81
2022-12-25T04:20:56.651Z,96684.59
2022-12-25T04:23:42.669Z,96682.50
2022-12-25T04:26:30.409Z,96692.84
2022-12-25T04:29:16.342Z,96692.63
2022-12-25T04:32:02.788Z,96685.81
2022-12-25T04:34:49.035Z,96690.16
2022-12-25T04:37:18.374Z,96687.91
2022-12-25T04:39:46.892Z,96687.47
2022-12-25T04:42:17.264Z,96675.25
2022-12-25T04:44:45.579Z,96685.00
2022-12-25T04:47:14.369Z,96685.81
2022-12-25T04:49:43.110Z,96677.94
2022-12-25T04:52:11.422Z,96661.81
2022-12-25T04:54:40.751Z,96670.47
2022-12-25T04:57:09.077Z,96670.47
2022-12-25T04:59:38.715Z,96664.25
2022-12-25T05:02:08.094Z,96666.53
2022-12-25T05:04:36.924Z,96663.63
2022-12-25T05:07:05.243Z,96639.91
2022-12-25T05:09:33.599Z,96673.38
2022-12-25T05:12:03.062Z,96664.69
2022-12-25T05:14:31.890Z,96672.34
2022-12-25T05:17:01.779Z,96675.03
2022-12-25T05:19:30.579Z,96679.59
2022-12-25T05:21:59.662Z,96676.91
2022-12-25T05:24:28.808Z,96665.50
2022-12-25T05:26:58.081Z,96667.63
2022-12-25T05:29:27.015Z,96666.72
2022-12-25T05:31:55.307Z,96671.06
2022-12-25T05:34:25.923Z,96666.53
2022-12-25T05:36:54.266Z,96660.28
2022-12-25T05:39:22.817Z,96629.50
2022-12-25T05:41:52.040Z,96656.19
2022-12-25T05:44:20.813Z,96655.38
2022-12-25T05:46:49.821Z,96642.94
2022-12-25T05:49:18.179Z,96651.22
2022-12-25T05:51:48.524Z,96613.25
2022-12-25T05:54:16.967Z,96660.16
2022-12-25T05:56:45.293Z,96660.97
2022-12-25T05:59:13.604Z,96668.25
2022-12-25T06:01:42.436Z,96659.16
2022-12-25T06:04:12.906Z,96664.13
2022-12-25T06:06:42.298Z,96675.50
2022-12-25T06:09:13.679Z,96682.56
2022-12-25T06:11:42.465Z,96671.59
2022-12-25T06:14:12.964Z,96670.38
2022-12-25T06:16:41.832Z,96676.34
2022-12-25T06:19:10.253Z,96673.22
2022-12-25T06:21:39.265Z,96671.34
2022-12-25T06:24:08.229Z,96665.59
2022-12-25T06:26:38.743Z,96668.47
2022-12-25T06:29:07.291Z,96675.88
2022-12-25T06:31:35.639Z,96671.16
2022-12-25T06:34:04.667Z,96670.34
2022-12-25T06:36:33.319Z,96673.66
2022-12-25T06:39:02.468Z,96666.06
2022-12-25T06:41:31.529Z,96672.69
2022-12-25T06:44:02.922Z,96671.06
2022-12-25T06:46:32.065Z,96680.38
2022-12-25T06:49:01.551Z,96681.38
2022-12-25T06:51:31.493Z,96681.78
2022-12-25T06:54:04.357Z,96676.81
2022-12-25T06:56:34.562Z,96672.03
2022-12-25T06:59:06.300Z,96682.81
2022-12-25T07:01:36.931Z,96678.47
2022-12-25T07:04:08.584Z,96678.50
2022-12-25T07:06:36.911Z,96686.81
2022-12-25T07:09:05.320Z,96685.59
2022-12-25T07:11:34.102Z,96669.88
2022-12-25T07:14:04.420Z,96684.13
2022-12-25T07:16:33.702Z,96679.75
2022-12-25T07:19:02.414Z,96679.31
2022-12-25T07:21:30.701Z,96690.94
2022-12-25T07:23:59.835Z,96688.25
2022-12-25T07:26:28.198Z,96678.56
2022-12-25T07:28:57.811Z,96682.69
2022-12-25T07:31:27.530Z,96690.34
2022-12-25T07:33:56.865Z,96690.97
2022-12-25T07:36:25.181Z,96690.72
2022-12-25T07:38:53.592Z,96682.88
2022-12-25T07:41:24.441Z,96681.22
2022-12-25T07:44:00.101Z,96690.97
2022-12-25T07:46:29.844Z,96684.75
2022-12-25T07:48:58.731Z,96691.75
2022-12-25T07:51:30.065Z,96685.75
2022-12-25T07:53:59.259Z,96677.25
2022-12-25T07:56:28.297Z,96689.41
2022-12-25T07:58:56.670Z,96677.63
2022-12-25T08:01:27.742Z,96678.84
2022-12-25T08:03:59.326Z,96676.81
2022-12-25T08:06:31.090Z,96678.03
2022-12-25T08:09:05.084Z,96677.81
2022-12-25T08:11:34.896Z,96667.47
2022-12-25T08:14:06.196Z,96687.34
2022-12-25T08:16:34.836Z,96687.75
2022-12-25T08:19:04.974Z,96687.72
2022-12-25T08:21:33.272Z,96683.56
2022-12-25T08:24:05.662Z,96687.25
2022-12-25T08:26:34.523Z,96680.84
2022-12-25T08:29:03.226Z,96674.56
2022-12-25T08:31:33.447Z,96666.00
2022-12-25T08:34:05.099Z,96674.09
2022-12-25T08:36:33.481Z,96672.88
2022-12-25T08:39:03.573Z,96678.44
2022-12-25T08:41:32.304Z,96675.97
2022-12-25T08:44:01.489Z,96673.66
2022-12-25T08:46:30.056Z,96659.16
2022-12-25T08:48:59.197Z,96676.88
2022-12-25T08:51:29.323Z,96689.94
2022-12-25T08:54:00.922Z,96683.91
2022-12-25T08:56:30.758Z,96672.16
2022-12-25T08:58:59.121Z,96683.84
2022-12-25T09:01:27.943Z,96677.22
2022-12-25T09:03:56.357Z,96664.78
2022-12-25T09:06:25.211Z,96667.41
2022-12-25T09:08:54.966Z,96662.63
2022-12-25T09:11:24.423Z,96672.19
2022-12-25T09:13:53.486Z,96649.50
2022-12-25T09:16:23.298Z,96650.44
2022-12-25T09:18:52.697Z,96646.63
2022-12-25T09:21:21.015Z,96648.09
2022-12-25T09:23:49.440Z,96651.97
2022-12-25T09:26:20.594Z,96654.13
2022-12-25T09:28:52.247Z,96667.53
2022-12-25T09:31:22.620Z,96675.00
2022-12-25T09:33:52.007Z,96677.19
2022-12-25T09:36:23.709Z,96680.28
2022-12-25T09:38:52.724Z,96678.31
2022-12-25T09:41:30.651Z,96678.69
2022-12-25T09:44:04.209Z,96674.19
2022-12-25T09:46:40.925Z,96654.53
2022-12-25T09:49:17.351Z,96656.13
2022-12-25T09:51:48.696Z,96650.78
2022-12-25T09:54:23.661Z,96649.63
2022-12-25T09:56:53.712Z,96650.09
2022-12-25T09:59:26.405Z,96648.00
2022-12-25T10:14:59.953Z,96644.03
2022-12-25T10:17:42.274Z,96603.03
2022-12-25T10:20:19.542Z,96555.22
2022-12-25T10:26:15.613Z,96648.16
2022-12-25T11:12:32.377Z,96528.13
2022-12-25T11:15:04.466Z,96491.88
2022-12-25T11:17:33.362Z,96577.53
2022-12-25T11:20:02.962Z,96574.31
2022-12-25T11:22:31.508Z,96490.84
2022-12-25T11:25:13.343Z,96559.41
2022-12-25T11:27:50.290Z,96581.03
2022-12-25T11:30:21.122Z,96524.97
2022-12-25T11:32:56.475Z,96565.38
2022-12-25T11:35:31.987Z,96562.09
2022-12-25T11:38:01.606Z,96554.50
2022-12-25T11:40:36.676Z,96541.09
2022-12-25T11:43:14.085Z,96555.97
2022-12-25T11:45:48.577Z,96445.50
2022-12-25T11:48:23.180Z,96548.34
2022-12-25T11:50:56.461Z,96537.75
2022-12-25T11:53:30.899Z,96542.44
2022-12-25T11:56:02.926Z,96504.22
2022-12-25T11:58:37.769Z,96538.66
2022-12-25T12:01:10.312Z,96531.56
2022-12-25T12:03:42.154Z,96532.09
2022-12-25T12:06:21.945Z,96528.88
2022-12-25T12:08:57.039Z,96544.16
2022-12-25T12:11:33.699Z,96534.97
2022-12-25T12:14:18.497Z,96523.56
2022-12-25T12:16:47.512Z,96525.25
2022-12-25T12:19:27.055Z,96510.56
2022-12-25T12:21:58.231Z,96514.13
2022-12-25T12:24:31.023Z,96515.53
2022-12-25T12:27:05.125Z,96508.44
2022-12-25T12:29:41.695Z,96523.47
2022-12-25T12:32:38.590Z,96508.41
2022-12-25T12:35:10.312Z,96514.66
2022-12-25T12:37:42.085Z,96510.28
2022-12-25T12:40:30.302Z,96500.94
2022-12-25T12:42:58.833Z,96493.06
2022-12-25T12:45:32.427Z,96482.72
2022-12-25T12:48:01.133Z,96473.44
2022-12-25T12:50:36.779Z,96486.53
2022-12-25T12:53:29.942Z,96482.44
2022-12-25T12:56:09.722Z,96477.56
2022-12-25T12:58:45.642Z,96484.38
2022-12-25T13:01:30.923Z,96457.56
2022-12-25T13:04:20.298Z,96472.84
2022-12-25T13:06:54.960Z,96463.22
2022-12-25T13:09:36.849Z,96467.28
2022-12-25T13:12:08.220Z,96467.16
2022-12-25T13:14:38.497Z,96468.69
2022-12-25T13:17:09.625Z,96444.56
2022-12-25T13:19:39.825Z,96471.63
2022-12-25T13:22:08.208Z,96478.00
2022-12-25T13:24:38.879Z,96482.28
2022-12-25T13:27:22.971Z,96471.66
2022-12-25T13:29:51.833Z,96470.00
2022-12-25T13:32:24.813Z,96473.25
2022-12-25T13:34:55.406Z,96475.47
2022-12-25T13:37:26.405Z,96473.28
2022-12-25T13:39:59.670Z,96468.03
2022-12-25T13:42:30.789Z,96473.78
2022-12-25T13:45:02.166Z,96457.97
2022-12-25T13:47:34.462Z,96458.00
2022-12-25T13:50:15.974Z,96452.75
2022-12-25T13:52:45.173Z,96457.19
2022-12-25T13:55:16.207Z,96446.88
2022-12-25T13:57:47.260Z,96432.75
2022-12-25T14:00:20.458Z,96426.56
2022-12-25T14:02:52.308Z,96435.34
2022-12-25T14:05:29.438Z,96437.34
2022-12-25T14:07:59.565Z,96437.91
2022-12-25T14:10:31.653Z,96444.72
2022-12-25T14:13:03.666Z,96452.09
2022-12-25T14:15:36.390Z,96447.75
2022-12-25T14:18:06.611Z,96454.34
2022-12-25T14:20:41.049Z,96463.09
2022-12-25T14:23:17.055Z,96460.34
2022-12-25T14:25:48.004Z,96438.75
2022-12-25T14:28:22.262Z,96439.84
2022-12-25T14:30:50.889Z,96444.41
2022-12-25T14:33:24.586Z,96414.31
2022-12-25T14:35:54.342Z,96446.72
2022-12-25T14:38:25.311Z,96441.69
2022-12-25T14:41:00.574Z,96439.69
2022-12-25T14:43:30.003Z,96436.34
2022-12-25T14:46:00.275Z,96431.28
2022-12-25T14:48:32.670Z,96446.81
2022-12-25T14:51:04.252Z,96450.63
2022-12-25T14:53:38.611Z,96447.06
2022-12-25T14:56:09.601Z,96441.56
2022-12-25T14:58:42.557Z,96431.06
2022-12-25T15:01:22.675Z,96421.63
2022-12-25T15:03:52.468Z,96443.25
2022-12-25T15:06:24.826Z,96447.63
2022-12-25T15:08:57.978Z,96454.66
2022-12-25T15:11:26.696Z,96454.28
2022-12-25T15:13:55.124Z,96430.19
2022-12-25T15:16:26.026Z,96454.72
2022-12-25T15:18:56.804Z,96451.94
2022-12-25T15:21:28.564Z,96460.34
2022-12-25T15:24:00.024Z,96455.09
2022-12-25T15:26:30.602Z,96456.09
2022-12-25T15:28:59.185Z,96460.53
2022-12-25T15:31:30.251Z,96451.47
2022-12-25T15:34:02.716Z,96442.97
2022-12-25T15:36:31.703Z,96432.91
2022-12-25T15:39:00.215Z,96414.69
2022-12-25T15:41:49.238Z,96419.47
2022-12-25T15:44:18.037Z,96411.28
2022-12-25T15:46:47.978Z,96430.16
2022-12-25T15:49:18.649Z,96410.47
2022-12-25T15:51:48.025Z,96416.88
2022-12-25T15:54:16.996Z,96411.88
2022-12-25T15:56:47.791Z,96422.66
2022-12-25T15:59:18.680Z,96416.81
2022-12-25T16:30:53.753Z,96420.78
2022-12-25T16:35:03.178Z,96434.53
2022-12-25T16:43:01.734Z,96423.03
2022-12-25T16:45:49.955Z,96403.63
2022-12-25T16:48:19.602Z,96420.25
2022-12-25T16:50:48.005Z,96415.28
2022-12-25T16:53:17.067Z,96392.63
2022-12-25T16:55:45.910Z,96422.66
2022-12-25T16:58:18.004Z,96413.19
2022-12-25T17:01:01.146Z,96402.88
2022-12-25T17:03:32.711Z,96404.97
2022-12-25T17:06:07.173Z,96413.47
2022-12-25T17:08:38.344Z,96405.72
2022-12-25T17:11:15.703Z,96405.16
2022-12-25T17:13:52.944Z,96402.22
2022-12-25T17:16:27.375Z,96405.28
2022-12-25T17:19:01.748Z,96418.09
2022-12-25T17:21:48.392Z,96405.16
2022-12-25T17:24:25.007Z,96411.06
2022-12-25T17:26:57.293Z,96408.72
2022-12-25T17:29:32.357Z,96415.53
2022-12-25T17:32:05.651Z,96374.34
2022-12-25T17:34:35.290Z,96401.88
2022-12-25T17:37:07.125Z,96408.72
2022-12-25T17:39:40.262Z,96405.50
2022-12-25T17:42:09.443Z,96410.59
2022-12-25T17:44:41.130Z,96391.91
2022-12-25T17:47:10.101Z,96399.63
2022-12-25T17:49:38.458Z,96401.53
2022-12-25T17:52:06.876Z,96404.47
2022-12-25T17:54:39.127Z,96406.47
2022-12-25T17:57:07.541Z,96394.72
2022-12-25T17:59:36.053Z,96400.94
2022-12-25T18:02:06.239Z,96401.41
2022-12-25T18:04:36.081Z,96398.47
2022-12-25T18:07:10.674Z,96382.16
2022-12-25T18:09:40.356Z,96377.09
2022-12-25T18:12:10.025Z,96402.13
2022-12-25T18:14:44.031Z,96393.41
2022-12-25T18:17:25.428Z,96379.09
2022-12-25T18:19:56.938Z,96388.00
2022-12-25T18:22:26.356Z,96399.75
2022-12-25T18:24:56.454Z,96403.97
2022-12-25T18:27:25.839Z,96358.31
2022-12-25T18:29:54.615Z,96393.06
2022-12-25T18:32:27.975Z,96359.78
2022-12-25T18:34:57.166Z,96394.28
2022-12-25T18:37:27.072Z,96342.50
2022-12-25T18:39:55.374Z,96388.81
2022-12-25T18:42:43.824Z,96399.63
2022-12-25T18:45:14.333Z,96397.88
2022-12-25T18:47:44.094Z,96410.66
2022-12-25T18:50:13.172Z,96414.28
2022-12-25T18:52:49.506Z,96383.94
2022-12-25T18:55:20.659Z,96407.94
2022-12-25T18:57:49.656Z,96423.59
2022-12-25T19:00:19.063Z,96423.59
2022-12-25T19:02:49.636Z,96413.56
2022-12-25T19:05:18.908Z,96414.38
2022-12-25T19:07:47.328Z,96384.59
2022-12-25T19:10:15.642Z,96387.34
2022-12-25T19:12:44.645Z,96392.03
2022-12-25T19:15:13.321Z,96408.38
2022-12-25T19:17:41.860Z,96416.22
2022-12-25T19:20:13.291Z,96410.59
2022-12-25T19:22:41.829Z,96393.66
2022-12-25T19:25:11.328Z,96405.44
2022-12-25T19:27:41.320Z,96374.38
2022-12-25T19:30:12.078Z,96393.09
2022-12-25T19:32:40.421Z,96383.34
2022-12-25T19:35:11.171Z,96398.72
2022-12-25T19:37:39.686Z,96389.09
2022-12-25T19:40:09.632Z,96404.94
2022-12-25T19:42:38.001Z,96413.97
2022-12-25T19:45:07.712Z,96415.25
2022-12-25T19:47:36.215Z,96392.03
2022-12-25T19:50:04.839Z,96420.66
2022-12-25T19:52:35.244Z,96424.75
2022-12-25T19:55:03.599Z,96430.16
2022-12-25T19:57:32.000Z,96415.47
2022-12-25T20:00:00.830Z,96417.81
2022-12-25T20:02:29.343Z,96421.47
2022-12-25T20:04:58.776Z,96425.16
2022-12-25T20:07:27.398Z,96421.75
2022-12-25T20:09:57.094Z,96417.16
2022-12-25T20:12:25.989Z,96415.53
2022-12-25T20:14:54.358Z,96421.16
2022-12-25T20:17:22.678Z,96419.59
2022-12-25T20:19:51.377Z,96409.94
2022-12-25T20:22:19.743Z,96403.44
2022-12-25T20:24:49.303Z,96426.13
2022-12-25T20:27:19.038Z,96420.50
2022-12-25T20:29:48.216Z,96423.34
2022-12-25T20:32:16.812Z,96412.06
2022-12-25T20:34:45.161Z,96424.63
2022-12-25T20:37:13.909Z,96414.03
2022-12-25T20:39:42.583Z,96414.78
2022-12-25T20:42:10.934Z,96412.22
2022-12-25T20:44:40.826Z,96405.53
2022-12-25T20:47:09.224Z,96412.69
2022-12-25T20:49:38.028Z,96410.00
2022-12-25T20:52:06.703Z,96397.75
2022-12-25T20:54:35.617Z,96409.63
2022-12-25T20:57:04.104Z,96406.56
2022-12-25T20:59:37.476Z,96400.34
2022-12-25T21:02:08.032Z,96402.44
2022-12-25T21:04:36.533Z,96417.88
2022-12-25T21:07:06.377Z,96405.75
2022-12-25T21:09:35.045Z,96415.75
2022-12-25T21:12:03.877Z,96413.59
2022-12-25T21:14:32.818Z,96417.47
2022-12-25T21:17:01.989Z,96413.97
2022-12-25T21:19:31.911Z,96395.69
2022-12-25T21:22:00.823Z,96429.72
2022-12-25T21:24:29.218Z,96433.00
2022-12-25T21:26:58.333Z,96438.19
2022-12-25T21:29:26.764Z,96380.50
2022-12-25T21:32:13.177Z,96444.41
2022-12-25T21:34:43.165Z,96448.53
2022-12-25T21:37:11.500Z,96443.97
2022-12-25T21:39:40.906Z,96447.72
2022-12-25T21:42:09.244Z,96447.91
2022-12-25T21:44:37.720Z,96456.25
2022-12-25T21:47:06.132Z,96454.13
2022-12-25T21:49:53.122Z,96466.63
2022-12-25T21:52:23.521Z,96466.00
2022-12-25T21:54:53.305Z,96459.78
2022-12-25T21:57:21.633Z,96466.22
2022-12-25T21:59:50.309Z,96456.81
2022-12-25T22:02:18.883Z,96453.63
2022-12-25T22:04:48.127Z,96477.19
2022-12-25T22:07:18.584Z,96462.44
2022-12-25T22:09:50.107Z,96449.22
2022-12-25T22:12:38.766Z,96467.00
2022-12-25T22:15:10.115Z,96483.25
2022-12-25T22:17:58.127Z,96490.22
2022-12-25T22:20:28.362Z,96477.53
2022-12-25T22:22:57.665Z,96475.66
2022-12-25T22:25:27.512Z,96489.78
2022-12-25T22:27:57.296Z,96462.44
2022-12-25T22:30:28.332Z,96463.84
2022-12-25T22:32:57.669Z,96489.78
2022-12-25T22:35:26.363Z,96503.88
2022-12-25T22:37:55.564Z,96483.91
2022-12-25T22:40:23.990Z,96493.06
2022-12-25T22:42:56.927Z,96473.56
2022-12-25T22:45:25.749Z,96487.44
2022-12-25T22:47:54.361Z,96493.06
2022-12-25T22:50:23.002Z,96499.66
2022-12-25T22:52:52.191Z,96478.00
2022-12-25T22:55:21.263Z,96499.66
2022-12-25T22:57:50.779Z,96503.19
2022-12-25T23:00:20.604Z,96488.09
2022-12-25T23:02:50.302Z,96493.31
2022-12-25T23:05:19.070Z,96462.44
2022-12-25T23:07:47.417Z,96503.78
2022-12-25T23:10:16.042Z,96489.78
2022-12-25T23:13:01.966Z,96496.50
2022-12-25T23:15:32.868Z,96486.47
2022-12-25T23:18:18.796Z,96491.69
2022-12-25T23:21:05.583Z,96504.38
2022-12-25T23:23:51.333Z,96488.84
2022-12-25T23:26:22.332Z,96505.19
2022-12-25T23:29:08.909Z,96501.91
2022-12-25T23:31:42.079Z,96506.16
2022-12-25T23:34:11.139Z,96508.13
2022-12-25T23:36:40.650Z,96504.59
2022-12-25T23:39:10.662Z,96503.56
2022-12-25T23:41:39.611Z,96511.41
2022-12-25T23:44:08.585Z,96504.28
2022-12-25T23:46:38.608Z,96487.81
2022-12-25T23:49:08.092Z,96503.25
2022-12-25T23:51:37.542Z,96505.34
2022-12-25T23:54:07.363Z,96482.25
2022-12-25T23:56:35.798Z,96510.53
2022-12-25T23:59:04.256Z,96500.38
